createdAt,value
2023-03-21T00:00:43.375Z,5.95
2023-03-21T00:03:10.189Z,5.90
2023-03-21T00:05:51.825Z,5.87
2023-03-21T00:08:18.504Z,5.79
2023-03-21T00:10:45.213Z,5.75
2023-03-21T00:13:15.808Z,5.62
2023-03-21T00:16:05.210Z,5.60
2023-03-21T00:18:42.244Z,5.58
2023-03-21T00:21:39.514Z,5.56
2023-03-21T00:24:00.753Z,5.57
2023-03-21T00:26:27.557Z,5.54
2023-03-21T00:28:54.314Z,5.54
2023-03-21T00:31:20.979Z,5.52
2023-03-21T00:33:47.581Z,5.50
2023-03-21T00:36:14.558Z,5.50
2023-03-21T00:38:41.552Z,5.50
2023-03-21T00:41:20.885Z,5.47
2023-03-21T00:43:55.631Z,5.49
2023-03-21T00:46:25.204Z,5.50
2023-03-21T00:48:52.241Z,5.49
2023-03-21T00:51:26.707Z,5.49
2023-03-21T00:53:55.693Z,5.50
2023-03-21T00:56:22.426Z,5.47
2023-03-21T00:58:49.519Z,5.45
2023-03-21T01:01:16.161Z,5.40
2023-03-21T01:03:47.948Z,5.39
2023-03-21T01:06:19.305Z,5.45
2023-03-21T01:08:52.620Z,5.47
2023-03-21T01:11:23.698Z,5.49
2023-03-21T01:13:56.095Z,5.41
2023-03-21T01:16:28.873Z,5.41
2023-03-21T01:18:56.331Z,5.43
2023-03-21T01:21:23.165Z,5.42
2023-03-21T01:23:49.780Z,5.43
2023-03-21T01:26:16.407Z,5.44
2023-03-21T01:28:44.069Z,5.46
2023-03-21T01:31:13.995Z,5.49
2023-03-21T01:33:40.973Z,5.51
2023-03-21T01:36:13.293Z,5.51
2023-03-21T01:38:41.762Z,5.52
2023-03-21T01:41:20.077Z,5.51
2023-03-21T01:43:47.710Z,5.51
2023-03-21T01:46:47.832Z,5.49
2023-03-21T01:49:36.044Z,5.50
2023-03-21T01:52:17.009Z,5.51
2023-03-21T01:54:47.751Z,5.51
2023-03-21T01:57:21.990Z,5.48
2023-03-21T01:59:51.439Z,5.47
2023-03-21T02:02:29.961Z,5.47
2023-03-21T02:04:58.176Z,5.50
2023-03-21T02:07:36.884Z,5.52
2023-03-21T02:10:08.114Z,5.52
2023-03-21T02:12:34.785Z,5.53
2023-03-21T02:15:01.736Z,5.50
2023-03-21T02:17:41.095Z,5.51
2023-03-21T02:20:37.444Z,5.50
2023-03-21T02:23:41.606Z,5.51
2023-03-21T02:26:20.240Z,5.50
2023-03-21T02:28:58.178Z,5.50
2023-03-21T02:31:36.428Z,5.50
2023-03-21T02:34:28.858Z,5.50
2023-03-21T02:37:17.134Z,5.51
2023-03-21T02:40:11.297Z,5.55
2023-03-21T02:43:01.049Z,5.58
2023-03-21T02:45:36.256Z,5.59
2023-03-21T02:48:20.314Z,5.59
2023-03-21T02:50:53.368Z,5.57
2023-03-21T02:53:24.289Z,5.60
2023-03-21T02:55:53.522Z,5.62
2023-03-21T02:58:23.309Z,5.62
2023-03-21T03:00:50.848Z,5.59
2023-03-21T03:03:28.139Z,5.57
2023-03-21T03:06:02.553Z,5.48
2023-03-21T03:08:52.898Z,5.45
2023-03-21T03:11:41.710Z,5.37
2023-03-21T03:15:02.203Z,5.35
2023-03-21T03:17:40.644Z,5.26
2023-03-21T03:20:17.480Z,5.16
2023-03-21T03:22:52.485Z,5.08
2023-03-21T03:25:54.437Z,4.97
2023-03-21T03:28:28.812Z,4.98
2023-03-21T03:31:08.829Z,4.98
2023-03-21T03:33:41.662Z,4.99
2023-03-21T03:36:18.846Z,4.95
2023-03-21T03:38:51.911Z,4.95
2023-03-21T03:41:25.576Z,4.97
2023-03-21T03:43:56.081Z,4.96
2023-03-21T03:46:33.431Z,4.93
2023-03-21T03:49:10.920Z,4.93
2023-03-21T03:51:42.814Z,4.94
2023-03-21T03:54:14.314Z,4.95
2023-03-21T03:56:41.114Z,4.95
2023-03-21T03:59:08.126Z,4.86
2023-03-21T04:01:35.114Z,4.82
2023-03-21T04:04:12.628Z,4.86
2023-03-21T04:06:40.240Z,4.85
2023-03-21T04:09:19.301Z,4.83
2023-03-21T04:11:47.766Z,4.86
2023-03-21T04:14:14.631Z,4.87
2023-03-21T04:16:41.335Z,4.84
2023-03-21T04:19:07.999Z,4.82
2023-03-21T04:21:34.567Z,4.82
2023-03-21T04:24:01.274Z,4.81
2023-03-21T04:26:32.994Z,4.80
2023-03-21T04:29:01.024Z,4.78
2023-03-21T04:31:28.662Z,4.78
2023-03-21T04:33:56.145Z,4.76
2023-03-21T04:36:27.638Z,4.74
2023-03-21T04:38:57.298Z,4.75
2023-03-21T04:41:24.060Z,4.71
2023-03-21T04:43:52.414Z,4.81
2023-03-21T04:46:19.240Z,4.84
2023-03-21T04:48:47.215Z,4.82
2023-03-21T04:51:13.821Z,4.80
2023-03-21T04:53:42.636Z,4.82
2023-03-21T04:56:09.758Z,4.83
2023-03-21T04:58:36.349Z,4.84
2023-03-21T05:01:05.848Z,4.85
2023-03-21T05:03:34.818Z,4.84
2023-03-21T05:06:01.915Z,4.86
2023-03-21T05:08:28.676Z,4.78
2023-03-21T05:10:55.402Z,4.75
2023-03-21T05:13:21.949Z,4.76
2023-03-21T05:15:48.512Z,4.80
2023-03-21T05:18:15.321Z,4.85
2023-03-21T05:20:45.199Z,4.84
2023-03-21T05:23:12.408Z,4.79
2023-03-21T05:25:40.081Z,4.74
2023-03-21T05:28:07.738Z,4.80
2023-03-21T05:30:34.700Z,4.82
2023-03-21T05:33:01.478Z,4.86
2023-03-21T05:35:28.384Z,4.90
2023-03-21T05:37:55.195Z,4.92
2023-03-21T05:40:21.811Z,4.91
2023-03-21T05:42:48.625Z,4.93
2023-03-21T05:45:16.242Z,4.96
2023-03-21T05:47:42.857Z,4.97
2023-03-21T05:50:11.208Z,5.00
2023-03-21T05:52:37.835Z,5.01
2023-03-21T05:55:05.432Z,5.03
2023-03-21T05:57:35.054Z,5.06
2023-03-21T06:00:02.090Z,5.10
2023-03-21T06:02:28.804Z,5.10
2023-03-21T06:04:56.632Z,5.12
2023-03-21T06:07:23.429Z,5.16
2023-03-21T06:09:50.575Z,5.16
2023-03-21T06:12:17.156Z,5.11
2023-03-21T06:14:43.718Z,5.19
2023-03-21T06:17:10.352Z,5.17
2023-03-21T06:19:36.924Z,5.18
2023-03-21T06:22:03.617Z,5.18
2023-03-21T06:24:30.192Z,5.25
2023-03-21T06:26:56.738Z,5.26
2023-03-21T06:29:23.403Z,5.33
2023-03-21T06:31:50.224Z,5.41
2023-03-21T06:34:16.807Z,5.38
2023-03-21T06:36:44.816Z,5.41
2023-03-21T06:39:11.483Z,5.45
2023-03-21T06:41:38.087Z,5.41
2023-03-21T06:44:05.134Z,5.49
2023-03-21T06:46:31.802Z,5.54
2023-03-21T06:48:58.373Z,5.61
2023-03-21T06:51:25.214Z,5.62
2023-03-21T06:53:51.746Z,5.67
2023-03-21T06:56:18.330Z,5.68
2023-03-21T06:58:45.025Z,5.74
2023-03-21T07:01:11.905Z,5.78
2023-03-21T07:03:39.488Z,5.84
2023-03-21T07:06:12.018Z,5.91
2023-03-21T07:08:39.785Z,5.95
2023-03-21T07:11:07.137Z,5.98
2023-03-21T07:13:34.022Z,6.01
2023-03-21T07:16:00.921Z,6.09
2023-03-21T07:18:27.964Z,6.16
2023-03-21T07:20:54.672Z,6.18
2023-03-21T07:23:23.518Z,6.23
2023-03-21T07:25:50.901Z,6.28
2023-03-21T07:28:18.582Z,6.31
2023-03-21T07:30:46.073Z,6.38
2023-03-21T07:33:12.903Z,6.45
2023-03-21T07:35:40.762Z,6.51
2023-03-21T07:38:07.687Z,6.56
2023-03-21T07:40:34.296Z,6.58
2023-03-21T07:45:32.456Z,6.66
2023-03-21T07:47:59.065Z,6.72
2023-03-21T07:50:25.763Z,6.75
2023-03-21T07:52:52.471Z,6.81
2023-03-21T07:55:19.221Z,6.80
2023-03-21T07:57:46.607Z,6.88
2023-03-21T08:00:22.752Z,6.92
2023-03-21T08:02:57.920Z,7.00
2023-03-21T08:05:28.959Z,7.09
2023-03-21T08:07:56.285Z,7.16
2023-03-21T08:10:23.204Z,7.13
2023-03-21T08:12:49.879Z,7.19
2023-03-21T08:15:16.780Z,7.27
2023-03-21T08:17:45.604Z,7.38
2023-03-21T08:20:21.237Z,7.46
2023-03-21T08:22:49.369Z,7.59
2023-03-21T08:25:18.470Z,7.68
2023-03-21T08:27:46.939Z,7.77
2023-03-21T08:30:16.558Z,7.85
2023-03-21T08:32:43.542Z,7.92
2023-03-21T08:35:12.560Z,8.01
2023-03-21T08:37:40.915Z,8.04
2023-03-21T08:40:11.528Z,8.16
2023-03-21T08:42:39.216Z,8.20
2023-03-21T08:45:07.139Z,8.23
2023-03-21T08:47:34.151Z,8.20
2023-03-21T08:50:01.825Z,8.20
2023-03-21T08:52:28.545Z,8.24
2023-03-21T08:54:55.328Z,8.31
2023-03-21T08:57:22.126Z,8.39
2023-03-21T08:59:48.758Z,8.39
2023-03-21T09:02:16.733Z,8.37
2023-03-21T09:04:44.895Z,8.32
2023-03-21T09:07:14.363Z,8.39
2023-03-21T09:09:41.703Z,8.45
2023-03-21T09:12:08.414Z,8.50
2023-03-21T09:14:35.437Z,8.66
2023-03-21T09:17:02.169Z,8.72
2023-03-21T09:19:30.099Z,8.82
2023-03-21T09:21:57.912Z,8.99
2023-03-21T09:24:24.666Z,9.04
2023-03-21T09:26:51.688Z,9.16
2023-03-21T09:29:23.317Z,9.30
2023-03-21T09:31:49.996Z,9.42
2023-03-21T09:34:16.991Z,9.53
2023-03-21T09:36:48.461Z,9.54
2023-03-21T09:39:17.431Z,9.57
2023-03-21T09:42:10.294Z,9.66
2023-03-21T09:44:44.025Z,9.79
2023-03-21T09:47:25.112Z,9.85
2023-03-21T09:50:13.036Z,9.86
2023-03-21T09:52:57.350Z,9.84
2023-03-21T09:55:35.191Z,9.60
2023-03-21T09:58:07.188Z,9.75
2023-03-21T10:00:39.855Z,9.75
2023-03-21T10:03:19.492Z,9.80
2023-03-21T10:05:48.626Z,9.75
2023-03-21T10:08:26.129Z,9.79
2023-03-21T10:11:01.378Z,9.86
2023-03-21T10:13:31.317Z,9.93
2023-03-21T10:16:00.999Z,9.99
2023-03-21T10:18:30.942Z,9.99
2023-03-21T10:20:57.642Z,9.96
2023-03-21T10:23:29.390Z,9.95
2023-03-21T10:26:01.461Z,9.95
2023-03-21T10:28:52.073Z,9.83
2023-03-21T10:31:21.105Z,9.86
2023-03-21T10:33:50.657Z,9.81
2023-03-21T10:36:19.347Z,9.85
2023-03-21T10:38:52.870Z,9.83
2023-03-21T10:41:21.177Z,9.82
2023-03-21T10:44:05.550Z,9.87
2023-03-21T10:46:35.893Z,9.92
2023-03-21T10:49:03.153Z,9.97
2023-03-21T10:51:37.104Z,10.06
2023-03-21T10:54:15.927Z,10.09
2023-03-21T10:56:55.706Z,10.12
2023-03-21T10:59:22.895Z,10.20
2023-03-21T11:01:52.890Z,10.15
2023-03-21T11:04:22.733Z,10.28
2023-03-21T11:06:55.391Z,10.42
2023-03-21T11:09:25.239Z,10.55
2023-03-21T11:12:03.899Z,10.55
2023-03-21T11:14:38.745Z,10.71
2023-03-21T11:17:17.515Z,10.86
2023-03-21T11:19:49.582Z,10.92
2023-03-21T11:22:20.568Z,10.92
2023-03-21T11:24:54.218Z,10.95
2023-03-21T11:27:21.297Z,10.84
2023-03-21T11:29:51.203Z,10.76
2023-03-21T11:32:51.044Z,10.64
2023-03-21T11:35:24.661Z,10.48
2023-03-21T11:37:56.522Z,10.42
2023-03-21T11:40:23.603Z,10.43
2023-03-21T11:43:02.233Z,10.54
2023-03-21T11:45:31.489Z,10.52
2023-03-21T11:48:00.622Z,10.44
2023-03-21T11:50:37.442Z,10.45
2023-03-21T11:53:38.460Z,10.31
2023-03-21T11:56:27.651Z,10.35
2023-03-21T11:59:16.420Z,10.42
2023-03-21T12:02:05.951Z,10.65
2023-03-21T12:04:41.724Z,10.78
2023-03-21T12:07:26.659Z,10.93
2023-03-21T12:10:08.575Z,11.13
2023-03-21T12:12:54.186Z,11.22
2023-03-21T12:15:27.847Z,11.16
2023-03-21T12:18:14.796Z,11.07
2023-03-21T12:21:15.784Z,11.10
2023-03-21T12:23:42.367Z,11.21
2023-03-21T12:26:12.867Z,11.31
2023-03-21T12:28:48.354Z,11.12
2023-03-21T12:31:21.114Z,11.14
2023-03-21T12:34:00.385Z,11.25
2023-03-21T12:37:03.619Z,11.29
2023-03-21T12:39:40.095Z,11.34
2023-03-21T12:42:16.031Z,11.26
2023-03-21T12:44:48.795Z,11.28
2023-03-21T12:47:21.638Z,11.28
2023-03-21T12:50:03.691Z,11.18
2023-03-21T12:52:35.573Z,11.14
2023-03-21T12:55:10.702Z,11.02
2023-03-21T12:57:56.792Z,11.09
2023-03-21T13:00:50.268Z,11.22
2023-03-21T13:03:33.593Z,11.31
2023-03-21T13:06:07.148Z,11.56
2023-03-21T13:08:37.347Z,11.76
2023-03-21T13:11:07.012Z,11.76
2023-03-21T13:13:42.465Z,11.80
2023-03-21T13:16:30.286Z,11.90
2023-03-21T13:19:14.097Z,11.95
2023-03-21T13:21:54.399Z,12.09
2023-03-21T13:24:38.062Z,12.15
2023-03-21T13:27:17.113Z,12.19
2023-03-21T13:29:53.090Z,11.95
2023-03-21T13:32:33.622Z,12.16
2023-03-21T13:35:10.012Z,12.23
2023-03-21T13:37:42.001Z,12.21
2023-03-21T13:40:23.135Z,11.97
2023-03-21T13:42:59.726Z,11.95
2023-03-21T13:45:52.748Z,11.97
2023-03-21T13:48:31.588Z,11.86
2023-03-21T13:51:05.742Z,11.91
2023-03-21T13:53:40.789Z,11.99
2023-03-21T13:56:19.659Z,12.12
2023-03-21T13:58:46.622Z,12.14
2023-03-21T14:01:34.156Z,12.11
2023-03-21T14:04:24.163Z,12.22
2023-03-21T14:07:26.484Z,12.19
2023-03-21T14:09:56.892Z,11.93
2023-03-21T14:12:27.577Z,12.06
2023-03-21T14:15:07.084Z,12.08
2023-03-21T14:17:37.346Z,12.09
2023-03-21T14:20:18.696Z,11.91
2023-03-21T14:22:48.360Z,11.85
2023-03-21T14:25:18.056Z,11.78
2023-03-21T14:27:51.135Z,11.96
2023-03-21T14:30:26.613Z,11.95
2023-03-21T14:32:59.880Z,12.10
2023-03-21T14:35:31.351Z,12.16
2023-03-21T14:38:01.840Z,12.24
2023-03-21T14:40:29.248Z,12.18
2023-03-21T14:42:55.992Z,12.27
2023-03-21T14:45:28.138Z,12.36
2023-03-21T14:47:57.119Z,12.19
2023-03-21T14:50:44.007Z,12.35
2023-03-21T14:53:16.450Z,12.34
2023-03-21T14:56:05.165Z,12.21
2023-03-21T14:58:33.653Z,12.21
2023-03-21T15:01:06.441Z,12.32
2023-03-21T15:03:33.869Z,12.33
2023-03-21T15:06:01.484Z,12.28
2023-03-21T15:08:29.303Z,12.31
2023-03-21T15:11:06.309Z,12.34
2023-03-21T15:13:38.007Z,12.40
2023-03-21T15:16:05.309Z,12.47
2023-03-21T15:18:34.459Z,12.56
2023-03-21T15:21:27.835Z,12.54
2023-03-21T15:23:58.545Z,12.58
2023-03-21T15:26:26.515Z,12.51
2023-03-21T15:28:58.438Z,12.50
2023-03-21T15:31:47.339Z,12.53
2023-03-21T15:34:27.747Z,12.49
2023-03-21T15:37:09.159Z,12.54
2023-03-21T15:39:38.473Z,12.55
2023-03-21T15:42:22.590Z,12.48
2023-03-21T15:44:53.223Z,12.48
2023-03-21T15:47:39.641Z,12.26
2023-03-21T15:50:17.386Z,12.11
2023-03-21T15:52:44.371Z,12.11
2023-03-21T15:55:28.043Z,12.05
2023-03-21T15:58:01.227Z,12.08
2023-03-21T16:00:55.225Z,12.17
2023-03-21T16:03:25.432Z,12.18
2023-03-21T16:06:11.542Z,12.09
2023-03-21T16:08:51.036Z,12.05
2023-03-21T16:11:23.603Z,12.06
2023-03-21T16:13:54.492Z,12.06
2023-03-21T16:16:21.207Z,12.08
2023-03-21T16:18:48.766Z,12.16
2023-03-21T16:21:18.346Z,12.09
2023-03-21T16:23:45.710Z,12.14
2023-03-21T16:26:16.673Z,12.09
2023-03-21T16:28:43.853Z,12.08
2023-03-21T16:31:15.970Z,12.00
2023-03-21T16:33:44.058Z,11.99
2023-03-21T16:36:18.480Z,12.06
2023-03-21T16:38:50.000Z,12.03
2023-03-21T16:41:17.401Z,11.98
2023-03-21T16:43:44.586Z,11.92
2023-03-21T16:46:20.186Z,11.88
2023-03-21T16:48:49.945Z,11.83
2023-03-21T16:53:49.872Z,11.73
2023-03-21T16:56:24.339Z,11.55
2023-03-21T16:58:53.514Z,11.55
2023-03-21T17:01:25.989Z,11.52
2023-03-21T17:03:53.284Z,11.48
2023-03-21T17:06:25.399Z,11.44
2023-03-21T17:08:53.366Z,11.36
2023-03-21T17:11:22.172Z,11.40
2023-03-21T17:13:51.148Z,11.27
2023-03-21T17:16:22.095Z,11.26
2023-03-21T17:18:49.760Z,11.29
2023-03-21T17:21:21.546Z,11.29
2023-03-21T17:23:48.870Z,11.26
2023-03-21T17:26:22.733Z,11.23
2023-03-21T17:28:49.515Z,11.15
2023-03-21T17:31:22.087Z,11.12
2023-03-21T17:33:49.073Z,11.17
2023-03-21T17:36:26.461Z,11.16
2023-03-21T17:38:53.189Z,11.10
2023-03-21T17:41:20.742Z,11.05
2023-03-21T17:43:47.532Z,10.99
2023-03-21T17:46:16.499Z,10.88
2023-03-21T17:48:43.952Z,10.76
2023-03-21T17:51:17.803Z,10.71
2023-03-21T17:53:46.435Z,10.61
2023-03-21T17:56:20.447Z,10.54
2023-03-21T17:58:47.333Z,10.46
2023-03-21T18:01:14.922Z,10.37
2023-03-21T18:03:41.620Z,10.37
2023-03-21T18:06:14.526Z,10.37
2023-03-21T18:08:42.434Z,10.37
2023-03-21T18:11:10.252Z,10.36
2023-03-21T18:13:38.425Z,10.32
2023-03-21T18:16:06.566Z,10.25
2023-03-21T18:18:34.013Z,10.20
2023-03-21T18:21:00.842Z,10.15
2023-03-21T18:23:27.597Z,10.02
2023-03-21T18:25:54.151Z,9.94
2023-03-21T18:28:21.724Z,9.82
2023-03-21T18:31:11.546Z,9.72
2023-03-21T18:33:40.536Z,9.61
2023-03-21T18:36:13.915Z,9.53
2023-03-21T18:38:42.092Z,9.44
2023-03-21T18:41:09.806Z,9.41
2023-03-21T18:46:24.721Z,9.32
2023-03-21T18:48:51.895Z,9.27
2023-03-21T18:51:19.324Z,9.18
2023-03-21T18:53:46.272Z,9.13
2023-03-21T18:56:40.831Z,9.06
2023-03-21T18:59:01.077Z,8.98
2023-03-21T19:01:27.927Z,8.92
2023-03-21T19:04:20.438Z,8.92
2023-03-21T19:06:47.368Z,8.88
2023-03-21T19:09:14.717Z,8.81
2023-03-21T19:11:44.140Z,8.69
2023-03-21T19:14:14.810Z,8.66
2023-03-21T19:17:14.995Z,8.63
2023-03-21T19:19:29.615Z,8.55
2023-03-21T19:21:56.535Z,8.53
2023-03-21T19:24:28.254Z,8.49
2023-03-21T19:26:55.587Z,8.48
2023-03-21T19:29:22.264Z,8.46
2023-03-21T19:31:51.120Z,8.37
2023-03-21T19:34:18.728Z,8.27
2023-03-21T19:36:50.918Z,8.30
2023-03-21T19:39:22.045Z,8.33
2023-03-21T19:41:49.140Z,8.40
2023-03-21T19:44:16.846Z,8.43
2023-03-21T19:46:43.631Z,8.45
2023-03-21T19:49:11.139Z,8.55
2023-03-21T19:51:37.906Z,8.60
2023-03-21T19:54:05.980Z,8.66
2023-03-21T19:56:34.586Z,8.71
2023-03-21T19:59:02.939Z,8.73
2023-03-21T20:01:30.482Z,8.75
2023-03-21T20:03:57.090Z,8.68
2023-03-21T20:06:24.293Z,8.64
2023-03-21T20:11:39.330Z,8.58
2023-03-21T20:14:06.422Z,8.58
2023-03-21T20:16:35.796Z,8.55
2023-03-21T20:19:09.031Z,8.53
2023-03-21T20:21:47.716Z,8.52
2023-03-21T20:24:17.722Z,8.49
2023-03-21T20:26:45.826Z,8.44
2023-03-21T20:30:07.056Z,8.37
2023-03-21T20:32:02.135Z,8.31
2023-03-21T20:34:30.443Z,8.28
2023-03-21T20:36:58.637Z,8.24
2023-03-21T20:39:26.908Z,8.21
2023-03-21T20:41:54.862Z,8.18
2023-03-21T20:44:51.815Z,8.19
2023-03-21T20:47:08.615Z,8.13
2023-03-21T20:49:35.328Z,8.09
2023-03-21T20:54:53.975Z,7.97
2023-03-21T20:57:20.944Z,7.93
2023-03-21T20:59:47.733Z,7.90
2023-03-21T21:02:14.357Z,7.85
2023-03-21T21:05:12.216Z,7.87
2023-03-21T21:07:29.464Z,7.83
2023-03-21T21:09:56.335Z,7.83
2023-03-21T21:12:27.742Z,7.83
2023-03-21T21:14:55.543Z,7.81
2023-03-21T21:20:16.303Z,7.78
2023-03-21T21:22:48.703Z,7.79
2023-03-21T21:25:25.244Z,7.79
2023-03-21T21:27:52.217Z,7.81
2023-03-21T21:30:18.853Z,7.79
2023-03-21T21:32:45.461Z,7.78
2023-03-21T21:35:12.172Z,7.75
2023-03-21T21:37:41.938Z,7.72
2023-03-21T21:40:20.316Z,7.73
2023-03-21T21:42:46.964Z,7.72
2023-03-21T21:45:13.932Z,7.75
2023-03-21T21:47:40.783Z,7.77
2023-03-21T21:50:08.255Z,7.76
2023-03-21T21:52:35.498Z,7.79
2023-03-21T21:55:04.069Z,7.82
2023-03-21T21:57:34.270Z,7.85
2023-03-21T22:00:06.162Z,7.81
2023-03-21T22:02:32.887Z,7.78
2023-03-21T22:04:59.558Z,7.78
2023-03-21T22:07:27.522Z,7.77
2023-03-21T22:09:54.557Z,7.79
2023-03-21T22:12:21.428Z,7.78
2023-03-21T22:14:48.048Z,7.81
2023-03-21T22:17:14.594Z,7.81
2023-03-21T22:19:52.686Z,7.81
2023-03-21T22:22:26.038Z,7.81
2023-03-21T22:24:56.274Z,7.80
2023-03-21T22:27:22.881Z,7.77
2023-03-21T22:29:49.741Z,7.74
2023-03-21T22:32:16.662Z,7.70
2023-03-21T22:34:43.202Z,7.66
2023-03-21T22:37:09.767Z,7.63
2023-03-21T22:39:37.471Z,7.60
2023-03-21T22:42:05.005Z,7.60
2023-03-21T22:44:35.588Z,7.59
2023-03-21T22:47:04.890Z,7.59
2023-03-21T22:49:34.555Z,7.60
2023-03-21T22:52:03.265Z,7.62
2023-03-21T22:54:30.057Z,7.61
2023-03-21T22:56:59.839Z,7.59
2023-03-21T22:59:27.562Z,7.57
2023-03-21T23:01:54.425Z,7.54
2023-03-21T23:04:21.184Z,7.56
2023-03-21T23:06:47.771Z,7.54
2023-03-21T23:09:14.726Z,7.54
2023-03-21T23:11:42.936Z,7.54
2023-03-21T23:14:10.194Z,7.53
2023-03-21T23:16:38.427Z,7.53
2023-03-21T23:19:05.498Z,7.50
2023-03-21T23:21:34.588Z,7.46
2023-03-21T23:24:01.314Z,7.40
2023-03-21T23:26:28.578Z,7.39
2023-03-21T23:28:55.378Z,7.36
2023-03-21T23:31:24.563Z,7.38
2023-03-21T23:33:51.410Z,7.39
2023-03-21T23:36:20.157Z,7.36
2023-03-21T23:38:47.175Z,7.33
2023-03-21T23:41:17.125Z,7.31
2023-03-21T23:43:44.327Z,7.26
2023-03-21T23:46:12.823Z,7.23
2023-03-21T23:48:41.286Z,7.23
2023-03-21T23:51:08.820Z,7.23
2023-03-21T23:53:37.414Z,7.21
2023-03-21T23:56:11.405Z,7.20
2023-03-21T23:58:37.946Z,7.13
